Flight Track Log - Related Links

Times and Time Zones

All times are in EDT time to prevent confusion due to time zone crossing. See the GJS3710 flight status page for this flight to view local times or setup timezone preferences in your user account.

Time Position Orientation Groundspeed Altitude Reporting Facility
EDT Latitude Longitude Course Direction KTS MPH feet Rate Location/Type
Wed 10:09:52 PM 41.9167 -87.8833 86° East 190 219 2,500  Level Chicago TRACON
Wed 10:10:52 PM 41.9333 -87.8000 75° East 237 273 4,500 1,983 Climbing Chicago TRACON
Wed 10:11:53 PM 41.9500 -87.7000 77° East 285 328 6,500 2,380 Climbing Chicago TRACON
Wed 10:12:00 PM 42.1542 -87.3875 66° East  Level FlightAware Approximate
Wed 10:12:53 PM 42.0000 -87.6167 51° Northeast 289 333 9,300  Level Chicago TRACON
Wed 10:13:00 PM 42.1987 -87.2541 66° East  Level FlightAware Approximate
Wed 10:14:00 PM 42.2431 -87.1207 66° East  Level FlightAware Approximate
Wed 10:14:56 PM 42.0967 -87.4272 55° Northeast 299 344 14,200  Level Chicago Center
Wed 10:15:00 PM 42.2676 -86.9807 86° East  Level FlightAware Approximate
Wed 10:15:57 PM 42.1364 -87.3175 64° Northeast 336 387 15,700  Level Chicago Center
Wed 10:16:59 PM 42.1483 -87.1819 83° East 365 420 17,100 1,366 Climbing Chicago Center
Wed 10:18:00 PM 42.1592 -87.0369 84° East 387 445 18,500 1,415 Climbing Chicago Center
Wed 10:19:02 PM 42.1714 -86.8861 84° East 404 465 20,000 1,463 Climbing Chicago Center
Wed 10:20:03 PM 42.1833 -86.7311 84° East 416 479 21,500 1,561 Climbing Chicago Center
Wed 10:21:05 PM 42.1969 -86.5519 84° East 421 484 23,200 1,610 Climbing Chicago Center
Wed 10:22:06 PM 42.2083 -86.3928 84° East 423 487 24,800 1,366 Climbing Chicago Center
Wed 10:23:08 PM 42.2200 -86.2344 84° East 425 489 26,000 1,171 Climbing Chicago Center
Wed 10:24:09 PM 42.2319 -86.0739 84° East 429 494 27,200 885 Climbing Chicago Center
Wed 10:25:10 PM 42.2419 -85.9233 85° East 437 503 27,800 732 Climbing Chicago Center
Wed 10:26:12 PM 42.2550 -85.7217 85° East 450 518 28,700 780 Climbing Chicago Center
Wed 10:27:13 PM 42.2664 -85.5500 85° East 460 529 29,400 683 Climbing Chicago Center
Wed 10:28:15 PM 42.2794 -85.3736 84° East 472 543 30,100 686 Climbing Chicago Center
Wed 10:28:58 PM 42.2906 -85.2433 83° East 460 529 30,600 706 Climbing Cleveland Center
Wed 10:29:57 PM 42.3019 -85.0672 85° East 460 529 31,300 600 Climbing Cleveland Center
Wed 10:30:58 PM 42.3022 -84.8931 90° East 460 529 31,800 545 Climbing Cleveland Center
Wed 10:31:58 PM 42.2964 -84.7103 92° East 469 540 32,400 650 Climbing Cleveland Center
Wed 10:32:58 PM 42.2856 -84.5494 95° East 469 540 33,100 750 Climbing Cleveland Center
Wed 10:33:58 PM 42.2997 -84.3761 84° East 469 540 33,900 800 Climbing Cleveland Center
Wed 10:34:58 PM 42.3156 -84.2058 83° East 464 534 34,700 800 Climbing Cleveland Center
Wed 10:35:58 PM 42.3314 -84.0325 83° East 459 528 35,500 800 Climbing Cleveland Center
Wed 10:36:58 PM 42.3467 -83.8619 83° East 459 528 36,300 800 Climbing Cleveland Center
Wed 10:37:58 PM 42.3617 -83.6969 83° East 459 528 37,100 807 Climbing Cleveland Center
Wed 10:38:57 PM 42.3744 -83.5289 84° East 454 522 37,900 650 Climbing Cleveland Center
Wed 10:39:58 PM 42.3869 -83.3664 84° East 442 509 38,400 496 Climbing Cleveland Center
Wed 10:40:58 PM 42.4017 -83.1869 84° East 437 503 38,900 300 Climbing Cleveland Center
Wed 10:41:58 PM 42.4133 -83.0300 84° East 437 503 39,000 50 Climbing Cleveland Center
Wed 10:42:58 PM 42.4250 -82.8644 84° East 437 503 39,000  Level Cleveland Center
Wed 10:43:58 PM 42.4386 -82.6961 84° East 443 510 39,000  Level Cleveland Center
Wed 10:44:57 PM 42.4500 -82.5306 85° East 443 510 39,000  Level Cleveland Center
Wed 10:45:57 PM 42.4611 -82.3619 85° East 443 510 39,000  Level Cleveland Center
Wed 10:46:57 PM 42.4739 -82.1906 84° East 443 510 39,000  Level Cleveland Center
Wed 10:47:57 PM 42.4867 -82.0247 84° East 443 510 39,000  Level Cleveland Center
Wed 10:48:57 PM 42.4969 -81.8533 85° East 443 510 39,000  Level Cleveland Center
Wed 10:49:57 PM 42.5089 -81.7014 84° East 443 510 39,000  Level Cleveland Center
Wed 10:50:57 PM 42.5208 -81.5353 84° East 443 510 39,000  Level Cleveland Center
Wed 10:51:57 PM 42.5306 -81.3722 85° East 443 510 39,000  Level Cleveland Center
Wed 10:52:57 PM 42.5419 -81.2031 85° East 443 510 39,000  Level Cleveland Center
Wed 10:53:57 PM 42.5511 -81.0369 86° East 443 510 39,000  Level Cleveland Center
Wed 10:54:57 PM 42.5600 -80.8678 86° East 443 510 39,000  Level Cleveland Center
Wed 10:55:58 PM 42.5686 -80.6819 86° East 443 510 39,000  Level Cleveland Center
Wed 10:56:57 PM 42.5789 -80.5128 85° East 443 510 39,000  Level Cleveland Center
Wed 10:57:57 PM 42.5892 -80.3406 85° East 450 518 39,000  Level Cleveland Center
Wed 10:58:57 PM 42.5992 -80.1686 85° East 450 518 39,000  Level Cleveland Center
Wed 10:59:58 PM 42.6089 -79.9992 85° East 460 529 39,000  Level Cleveland Center
Wed 11:00:57 PM 42.6161 -79.8411 86° East 460 529 39,000  Level Cleveland Center
Wed 11:01:57 PM 42.6256 -79.6689 86° East 460 529 39,000  Level Cleveland Center
Wed 11:02:57 PM 42.6344 -79.4967 86° East 455 524 39,000  Level Cleveland Center
Wed 11:03:57 PM 42.6408 -79.3272 87° East 455 524 39,000  Level Cleveland Center
Wed 11:04:57 PM 42.6475 -79.1606 87° East 455 524 39,000  Level Cleveland Center
Wed 11:05:57 PM 42.6533 -78.9853 87° East 455 524 39,000  Level Cleveland Center
Wed 11:06:57 PM 42.6614 -78.8158 86° East 455 524 39,000  Level Cleveland Center
Wed 11:07:57 PM 42.6692 -78.6461 86° East 455 524 39,000  Level Cleveland Center
Wed 11:08:57 PM 42.6744 -78.4764 88° East 450 518 39,000  Level Cleveland Center
Wed 11:09:57 PM 42.6794 -78.3039 88° East 450 518 39,000  Level Cleveland Center
Wed 11:10:57 PM 42.6864 -78.1342 87° East 450 518 39,000 -100 Level Cleveland Center
Wed 11:11:57 PM 42.6911 -77.9647 88° East 450 518 38,800 -600 Descending Cleveland Center
Wed 11:12:57 PM 42.6975 -77.7975 87° East 445 512 37,800 -1,100 Descending Cleveland Center
Wed 11:13:57 PM 42.7022 -77.6447 88° East 445 512 36,600 -1,450 Descending Cleveland Center
Wed 11:14:57 PM 42.7075 -77.4525 88° East 431 496 34,900 -1,290 Descending Cleveland Center
Wed 11:17:03 PM 42.7139 -77.1403 88° East 416 479 32,600 -1,129 Descending Boston Center
Wed 11:18:03 PM 42.7181 -76.9850 88° East 416 479 31,400 -1,250 Descending Boston Center
Wed 11:19:03 PM 42.7222 -76.8242 88° East 416 479 30,100 -1,200 Descending Boston Center
Wed 11:20:03 PM 42.7261 -76.6689 88° East 416 479 29,000 -750 Descending Boston Center
Wed 11:21:03 PM 42.7292 -76.5250 88° East 401 461 28,600 -800 Descending Boston Center
Wed 11:22:03 PM 42.7325 -76.3753 88° East 395 455 27,400 -1,350 Descending Boston Center
Wed 11:23:03 PM 42.7342 -76.2056 89° East 395 455 25,900 -1,450 Descending Boston Center
Wed 11:24:03 PM 42.7369 -76.0558 89° East 395 455 24,500 -1,400 Descending Boston Center
Wed 11:25:03 PM 42.7372 -75.9061 90° East 400 460 23,100 -1,400 Descending Boston Center
Wed 11:26:03 PM 42.7417 -75.7650 87° East 386 444 21,700 -1,400 Descending Boston Center
Wed 11:27:03 PM 42.7433 -75.6294 89° East 375 432 20,300 -1,400 Descending Boston Center
Wed 11:28:03 PM 42.7431 -75.4908 90° East 361 415 18,900 -1,250 Descending Boston Center
Wed 11:29:03 PM 42.7461 -75.3722 88° East 355 409 17,800 -1,150 Descending Boston Center
Wed 11:30:03 PM 42.7472 -75.2419 89° East 344 396 16,600 -1,300 Descending Boston Center
Wed 11:31:03 PM 42.7481 -75.1206 89° East 334 384 15,200 -1,400 Descending Boston Center
Wed 11:32:03 PM 42.7489 -74.9989 89° East 323 372 13,800 -1,438 Descending Boston Center
Wed 11:32:39 PM 42.7486 -74.9142 90° East 320 368 12,900 -1,400 Descending Boston Center
Wed 11:33:03 PM 42.7494 -74.8775 88° East 323 372 12,400 -1,071 Descending Boston Center
Wed 11:34:03 PM 42.7481 -74.7389 91° East 329 379 11,400 -700 Descending Boston Center
Wed 11:35:03 PM 42.7481 -74.6342 90° East 324 373 11,000 -200 Descending Boston Center
Wed 11:36:03 PM 42.7481 -74.5267 90° East 316 364 11,000 -550 Level Boston Center
Wed 11:37:03 PM 42.7503 -74.4081 88° East 298 343 9,900 -1,300 Descending Boston Center
Wed 11:38:03 PM 42.7500 -74.2919 90° East 274 315 8,400 -1,500 Descending Boston Center
Wed 11:39:03 PM 42.7597 -74.2047 81° East 268 308 6,900 -1,700 Descending Boston Center
Wed 11:40:03 PM 42.7864 -74.0950 72° East 268 308 5,000 -1,500 Descending Boston Center
Wed 11:41:03 PM 42.8064 -74.0136 71° East 263 303 3,900 -1,150 Descending Boston Center
Wed 11:42:03 PM 42.8306 -73.9236 70° East 258 297 2,700 -900 Descending Boston Center
Wed 11:43:03 PM 42.8689 -73.8567 52° Northeast 247 284 2,100 -350 Descending Boston Center
Wed 11:44:03 PM 42.8864 -73.7803 73° East 221 254 2,000 -100 Descending Boston Center

Login

Don't have an account? Register now (free) for customized features, flight alerts, and more!